Time,TemperatureF,DewpointF,PressureIn,WindDirection,WindDirectionDegrees,WindSpeedMPH,WindSpeedGustMPH,Humidity,HourlyPrecipIn,Conditions,Clouds,dailyrainin,SolarRadiationWatts/m^2,SoftwareType,DateUTC
2013-01-21 00:02:00,50.0,-9.0,-100.00,North,5,2.0,8.0,8,0.00,,,0.00,0.000000,,2013-01-21 08:02:00,
2013-01-21 00:13:00,50.0,-9.0,-100.00,North,5,2.0,8.0,8,0.00,,,0.00,0.000000,,2013-01-21 08:13:00,
2013-01-21 00:22:00,50.0,-9.0,-100.00,North,5,2.0,8.0,8,0.00,,,0.00,0.000000,,2013-01-21 08:22:00,
2013-01-21 00:53:00,45.0,-10.0,-100.00,North,11,1.0,6.0,9,0.00,,,0.00,0.000000,,2013-01-21 08:53:00,
2013-01-21 01:02:00,45.0,-10.0,-100.00,North,11,1.0,6.0,9,0.00,,,0.00,0.000000,,2013-01-21 09:02:00,
2013-01-21 01:12:00,45.0,-10.0,-100.00,North,11,1.0,6.0,9,0.00,,,0.00,0.000000,,2013-01-21 09:12:00,
2013-01-21 01:22:00,45.0,-10.0,-100.00,North,11,1.0,6.0,9,0.00,,,0.00,0.000000,,2013-01-21 09:22:00,
2013-01-21 01:53:00,46.0,-12.0,-100.00,North,357,3.0,6.0,8,0.00,,,0.00,0.000000,,2013-01-21 09:53:00,
2013-01-21 02:02:00,46.0,-12.0,-100.00,North,357,3.0,6.0,8,0.00,,,0.00,0.000000,,2013-01-21 10:02:00,
2013-01-21 02:12:00,46.0,-12.0,-100.00,North,357,3.0,6.0,8,0.00,,,0.00,0.000000,,2013-01-21 10:12:00,
2013-01-21 02:22:00,46.0,-12.0,-100.00,North,357,3.0,6.0,8,0.00,,,0.00,0.000000,,2013-01-21 10:22:00,
2013-01-21 02:52:00,49.0,-12.0,-100.00,WSW,255,2.0,9.0,7,0.00,,,0.00,0.000000,,2013-01-21 10:52:00,
2013-01-21 03:02:00,49.0,-12.0,-100.00,WSW,255,2.0,9.0,7,0.00,,,0.00,0.000000,,2013-01-21 11:02:00,
2013-01-21 03:12:00,49.0,-12.0,-100.00,WSW,255,2.0,9.0,7,0.00,,,0.00,0.000000,,2013-01-21 11:12:00,
2013-01-21 03:22:00,49.0,-12.0,-100.00,WSW,255,2.0,9.0,7,0.00,,,0.00,0.000000,,2013-01-21 11:22:00,
2013-01-21 03:53:00,45.0,-10.0,-100.00,NW,325,2.0,14.0,9,0.00,,,0.00,0.000000,,2013-01-21 11:53:00,
2013-01-21 04:02:00,45.0,-10.0,-100.00,NW,325,2.0,14.0,9,0.00,,,0.00,0.000000,,2013-01-21 12:02:00,
2013-01-21 04:12:00,45.0,-10.0,-100.00,NW,325,2.0,14.0,9,0.00,,,0.00,0.000000,,2013-01-21 12:12:00,
2013-01-21 04:22:00,45.0,-10.0,-100.00,NW,325,2.0,14.0,9,0.00,,,0.00,0.000000,,2013-01-21 12:22:00,
2013-01-21 04:53:00,44.0,-11.0,-100.00,North,355,1.0,7.0,9,0.00,,,0.00,0.000000,,2013-01-21 12:53:00,
2013-01-21 05:02:00,44.0,-11.0,-100.00,North,355,1.0,7.0,9,0.00,,,0.00,0.000000,,2013-01-21 13:02:00,
2013-01-21 05:12:00,44.0,-11.0,-100.00,North,355,1.0,7.0,9,0.00,,,0.00,0.000000,,2013-01-21 13:12:00,
2013-01-21 05:22:00,44.0,-11.0,-100.00,North,355,1.0,7.0,9,0.00,,,0.00,0.000000,,2013-01-21 13:22:00,
2013-01-21 05:53:00,41.0,-11.0,-100.00,NE,47,0.0,5.0,10,0.00,,,0.00,0.000000,,2013-01-21 13:53:00,
2013-01-21 06:12:00,41.0,-11.0,-100.00,NE,47,0.0,5.0,10,0.00,,,0.00,0.000000,,2013-01-21 14:12:00,
2013-01-21 06:22:00,41.0,-11.0,-100.00,NE,47,0.0,5.0,10,0.00,,,0.00,0.000000,,2013-01-21 14:22:00,
2013-01-21 06:53:00,43.0,-12.0,-100.00,East,86,2.0,13.0,9,0.00,,,0.00,0.000000,,2013-01-21 14:53:00,
2013-01-21 07:03:00,43.0,-12.0,-100.00,East,86,2.0,13.0,9,0.00,,,0.00,0.000000,,2013-01-21 15:03:00,
2013-01-21 07:12:00,43.0,-12.0,-100.00,East,86,2.0,13.0,9,0.00,,,0.00,0.000000,,2013-01-21 15:12:00,
2013-01-21 07:22:00,43.0,-12.0,-100.00,East,86,2.0,13.0,9,0.00,,,0.00,0.000000,,2013-01-21 15:22:00,
2013-01-21 07:53:00,46.0,-10.0,-100.00,East,84,3.0,8.0,9,0.00,,,-99.99,8.000000,,2013-01-21 15:53:00,
2013-01-21 08:03:00,46.0,-10.0,-100.00,East,84,3.0,8.0,9,0.00,,,-99.99,8.000000,,2013-01-21 16:03:00,
2013-01-21 08:12:00,46.0,-10.0,-100.00,East,84,3.0,8.0,9,0.00,,,-99.99,8.000000,,2013-01-21 16:12:00,
2013-01-21 08:22:00,46.0,-10.0,-100.00,East,84,3.0,8.0,9,0.00,,,-99.99,8.000000,,2013-01-21 16:22:00,
2013-01-21 08:53:00,52.0,-7.0,-100.00,SSE,147,5.0,9.0,8,0.00,,,0.00,166.000000,,2013-01-21 16:53:00,
2013-01-21 09:02:00,52.0,-7.0,-100.00,SSE,147,5.0,9.0,8,0.00,,,0.00,166.000000,,2013-01-21 17:02:00,
2013-01-21 09:12:00,52.0,-7.0,-100.00,SSE,147,5.0,9.0,8,0.00,,,0.00,166.000000,,2013-01-21 17:12:00,
2013-01-21 09:22:00,52.0,-7.0,-100.00,SSE,147,5.0,9.0,8,0.00,,,0.00,166.000000,,2013-01-21 17:22:00,
2013-01-21 09:53:00,56.0,-7.0,-100.00,SE,144,9.0,19.0,7,0.00,,,0.00,379.000000,,2013-01-21 17:53:00,
2013-01-21 10:02:00,56.0,-7.0,-100.00,SE,144,9.0,19.0,7,0.00,,,0.00,379.000000,,2013-01-21 18:02:00,
2013-01-21 10:12:00,56.0,-7.0,-100.00,SE,144,9.0,19.0,7,0.00,,,0.00,379.000000,,2013-01-21 18:12:00,
2013-01-21 10:22:00,56.0,-7.0,-100.00,SE,144,9.0,19.0,7,0.00,,,0.00,379.000000,,2013-01-21 18:22:00,
2013-01-21 10:53:00,60.0,-11.0,-100.00,SE,128,8.0,20.0,5,0.00,,,0.00,557.000000,,2013-01-21 18:53:00,
2013-01-21 11:03:00,60.0,-11.0,-100.00,SE,128,8.0,20.0,5,0.00,,,0.00,557.000000,,2013-01-21 19:03:00,
2013-01-21 11:53:00,62.0,-6.0,-100.00,SE,146,13.0,26.0,6,0.00,,,0.00,679.000000,,2013-01-21 19:53:00,
2013-01-21 12:03:00,62.0,-6.0,-100.00,SE,146,13.0,26.0,6,0.00,,,0.00,679.000000,,2013-01-21 20:03:00,
2013-01-21 12:53:00,61.0,-7.0,-100.00,SE,142,12.0,24.0,6,0.00,,,0.00,730.000000,,2013-01-21 20:53:00,
2013-01-21 13:03:00,61.0,-7.0,-100.00,SE,142,12.0,24.0,6,0.00,,,0.00,730.000000,,2013-01-21 21:03:00,
2013-01-21 13:12:00,61.0,-7.0,-100.00,SE,142,12.0,24.0,6,0.00,,,0.00,730.000000,,2013-01-21 21:12:00,
2013-01-21 13:22:00,61.0,-7.0,-100.00,SE,142,12.0,24.0,6,0.00,,,0.00,730.000000,,2013-01-21 21:22:00,
2013-01-21 13:53:00,63.0,-2.0,-100.00,SE,129,8.0,18.0,7,0.00,,,0.00,711.000000,,2013-01-21 21:53:00,
2013-01-21 14:03:00,63.0,-2.0,-100.00,SE,129,8.0,18.0,7,0.00,,,0.00,711.000000,,2013-01-21 22:03:00,
2013-01-21 14:12:00,63.0,-2.0,-100.00,SE,129,8.0,18.0,7,0.00,,,0.00,711.000000,,2013-01-21 22:12:00,
2013-01-21 14:22:00,63.0,-2.0,-100.00,SE,129,8.0,18.0,7,0.00,,,0.00,711.000000,,2013-01-21 22:22:00,
2013-01-21 14:53:00,61.0,-1.0,-100.00,SE,132,8.0,14.0,8,0.00,,,0.00,619.000000,,2013-01-21 22:53:00,
2013-01-21 15:03:00,61.0,-1.0,-100.00,SE,132,8.0,14.0,8,0.00,,,0.00,619.000000,,2013-01-21 23:03:00,
2013-01-21 15:12:00,61.0,-1.0,-100.00,SE,132,8.0,14.0,8,0.00,,,0.00,619.000000,,2013-01-21 23:12:00,
2013-01-21 15:22:00,61.0,-1.0,-100.00,SE,132,8.0,14.0,8,0.00,,,0.00,619.000000,,2013-01-21 23:22:00,
2013-01-21 15:53:00,57.0,-1.0,-100.00,SE,135,8.0,12.0,9,0.00,,,0.00,464.000000,,2013-01-21 23:53:00,
2013-01-21 16:02:00,57.0,-1.0,-100.00,SE,135,8.0,12.0,9,0.00,,,0.00,464.000000,,2013-01-22 00:02:00,
2013-01-21 16:12:00,57.0,-1.0,-100.00,SE,135,8.0,12.0,9,0.00,,,0.00,464.000000,,2013-01-22 00:12:00,
2013-01-21 16:22:00,57.0,-1.0,-100.00,SE,135,8.0,12.0,9,0.00,,,0.00,464.000000,,2013-01-22 00:22:00,
2013-01-21 16:53:00,47.0,-3.0,-100.00,ESE,108,4.0,11.0,12,0.00,,,0.00,88.000000,,2013-01-22 00:53:00,
2013-01-21 17:12:00,47.0,-3.0,-100.00,ESE,108,4.0,11.0,12,0.00,,,0.00,88.000000,,2013-01-22 01:12:00,
2013-01-21 17:22:00,47.0,-3.0,-100.00,ESE,108,4.0,11.0,12,0.00,,,0.00,88.000000,,2013-01-22 01:22:00,
2013-01-21 17:52:00,44.0,-2.0,-100.00,SE,124,2.0,7.0,14,0.00,,,0.00,9.000000,,2013-01-22 01:52:00,
2013-01-21 18:12:00,44.0,-2.0,-100.00,SE,124,2.0,7.0,14,0.00,,,0.00,9.000000,,2013-01-22 02:12:00,
2013-01-21 18:22:00,44.0,-2.0,-100.00,SE,124,2.0,7.0,14,0.00,,,0.00,9.000000,,2013-01-22 02:22:00,
2013-01-21 18:53:00,43.0,-3.0,-100.00,East,100,0.0,6.0,14,0.00,,,0.00,0.000000,,2013-01-22 02:53:00,
2013-01-21 19:12:00,43.0,-3.0,-100.00,East,100,0.0,6.0,14,0.00,,,0.00,0.000000,,2013-01-22 03:12:00,
2013-01-21 19:22:00,43.0,-3.0,-100.00,East,100,0.0,6.0,14,0.00,,,0.00,0.000000,,2013-01-22 03:22:00,
2013-01-21 19:52:00,41.0,-3.0,-100.00,East,101,0.0,8.0,15,0.00,,,0.00,0.000000,,2013-01-22 03:52:00,
2013-01-21 20:12:00,41.0,-3.0,-100.00,East,101,0.0,8.0,15,0.00,,,0.00,0.000000,,2013-01-22 04:12:00,
2013-01-21 20:22:00,41.0,-3.0,-100.00,East,101,0.0,8.0,15,0.00,,,0.00,0.000000,,2013-01-22 04:22:00,
2013-01-21 20:52:00,43.0,0.0,-100.00,East,94,0.0,3.0,16,0.00,,,0.00,0.000000,,2013-01-22 04:52:00,
2013-01-21 21:03:00,43.0,0.0,-100.00,East,94,0.0,3.0,16,0.00,,,0.00,0.000000,,2013-01-22 05:03:00,
2013-01-21 21:12:00,43.0,0.0,-100.00,East,94,0.0,3.0,16,0.00,,,0.00,0.000000,,2013-01-22 05:12:00,
2013-01-21 21:22:00,43.0,0.0,-100.00,East,94,0.0,3.0,16,0.00,,,0.00,0.000000,,2013-01-22 05:22:00,
2013-01-21 21:53:00,43.0,-3.0,-100.00,East,93,0.0,5.0,14,0.00,,,0.00,0.000000,,2013-01-22 05:53:00,
2013-01-21 22:02:00,43.0,-3.0,-100.00,East,93,0.0,5.0,14,0.00,,,0.00,0.000000,,2013-01-22 06:02:00,
2013-01-21 22:12:00,43.0,-3.0,-100.00,East,93,0.0,5.0,14,0.00,,,0.00,0.000000,,2013-01-22 06:12:00,
2013-01-21 22:22:00,43.0,-3.0,-100.00,East,93,0.0,5.0,14,0.00,,,0.00,0.000000,,2013-01-22 06:22:00,
2013-01-21 22:52:00,41.0,0.0,-100.00,NNW,332,1.0,5.0,17,0.00,,,0.00,0.000000,,2013-01-22 06:52:00,
2013-01-21 23:11:00,41.0,0.0,-100.00,NNW,332,1.0,5.0,17,0.00,,,0.00,0.000000,,2013-01-22 07:11:00,
2013-01-21 23:22:00,41.0,0.0,-100.00,NNW,332,1.0,5.0,17,0.00,,,0.00,0.000000,,2013-01-22 07:22:00,
2013-01-21 23:53:00,42.0,0.0,-100.00,NNW,327,5.0,8.0,17,0.00,,,0.00,0.000000,,2013-01-22 07:53:00,